createdAt,value
2022-10-22T00:00:56.621Z,11.80
2022-10-22T00:03:24.460Z,11.90
2022-10-22T00:05:52.233Z,11.80
2022-10-22T00:08:21.442Z,11.80
2022-10-22T00:10:49.287Z,11.80
2022-10-22T00:13:17.099Z,11.80
2022-10-22T00:15:44.829Z,11.90
2022-10-22T00:18:12.521Z,11.80
2022-10-22T00:20:40.283Z,11.80
2022-10-22T00:23:07.976Z,11.80
2022-10-22T00:25:37.633Z,11.80
2022-10-22T00:28:05.853Z,11.80
2022-10-22T00:30:33.580Z,11.80
2022-10-22T00:33:01.340Z,11.80
2022-10-22T00:35:29.163Z,11.80
2022-10-22T00:37:56.879Z,11.80
2022-10-22T00:40:24.606Z,11.70
2022-10-22T00:42:53.681Z,11.70
2022-10-22T00:45:24.874Z,11.70
2022-10-22T00:47:57.189Z,11.80
2022-10-22T00:50:30.563Z,11.80
2022-10-22T00:52:59.209Z,11.70
2022-10-22T00:55:28.861Z,11.70
2022-10-22T00:57:59.163Z,11.70
2022-10-22T01:00:27.279Z,11.70
2022-10-22T01:02:55.596Z,11.70
2022-10-22T01:05:23.821Z,11.70
2022-10-22T01:07:53.792Z,11.80
2022-10-22T01:10:39.972Z,11.70
2022-10-22T01:13:18.685Z,11.70
2022-10-22T01:15:52.166Z,11.80
2022-10-22T01:18:25.846Z,11.70
2022-10-22T01:21:04.734Z,11.70
2022-10-22T01:24:24.610Z,11.80
2022-10-22T01:27:08.805Z,11.80
2022-10-22T01:29:41.698Z,11.80
2022-10-22T01:32:13.572Z,11.90
2022-10-22T01:34:45.809Z,11.80
2022-10-22T01:37:16.366Z,11.80
2022-10-22T01:39:46.255Z,11.80
2022-10-22T01:42:14.608Z,11.80
2022-10-22T01:44:43.935Z,11.80
2022-10-22T01:47:19.244Z,11.80
2022-10-22T01:50:24.590Z,11.70
2022-10-22T01:53:03.291Z,11.70
2022-10-22T01:55:43.036Z,11.70
2022-10-22T01:58:22.122Z,11.70
2022-10-22T02:00:58.046Z,11.70
2022-10-22T02:03:30.071Z,11.70
2022-10-22T02:06:02.150Z,11.70
2022-10-22T02:08:32.696Z,11.80
2022-10-22T02:11:01.894Z,11.80
2022-10-22T02:13:35.945Z,11.80
2022-10-22T02:16:07.701Z,11.70
2022-10-22T02:18:39.596Z,11.70
2022-10-22T02:23:36.621Z,11.70
2022-10-22T02:26:10.600Z,11.70
2022-10-22T02:28:45.364Z,11.70
2022-10-22T02:31:18.452Z,11.60
2022-10-22T02:33:49.300Z,11.60
2022-10-22T02:36:18.404Z,11.60
2022-10-22T02:38:48.246Z,11.50
2022-10-22T02:41:16.892Z,11.50
2022-10-22T02:43:54.756Z,11.50
2022-10-22T02:46:25.241Z,11.50
2022-10-22T02:48:52.944Z,11.50
2022-10-22T02:51:20.759Z,11.50
2022-10-22T02:53:48.441Z,11.50
2022-10-22T02:56:16.158Z,11.50
2022-10-22T02:58:43.907Z,11.50
2022-10-22T03:01:15.212Z,11.40
2022-10-22T03:03:45.341Z,11.40
2022-10-22T03:06:13.277Z,11.40
2022-10-22T03:08:41.223Z,11.40
2022-10-22T03:11:09.439Z,11.30
2022-10-22T03:13:37.168Z,11.30
2022-10-22T03:16:05.116Z,11.30
2022-10-22T03:18:32.859Z,11.20
2022-10-22T03:21:09.535Z,11.20
2022-10-22T03:23:38.220Z,11.20
2022-10-22T03:26:07.037Z,11.10
2022-10-22T03:28:35.835Z,11.10
2022-10-22T03:31:03.576Z,11.10
2022-10-22T03:33:31.287Z,11.10
2022-10-22T03:36:00.057Z,11.10
2022-10-22T03:38:30.601Z,11.10
2022-10-22T03:40:59.185Z,11.10
2022-10-22T03:43:27.015Z,11.10
2022-10-22T03:45:54.724Z,11.10
2022-10-22T03:48:22.651Z,11.10
2022-10-22T03:50:50.871Z,11.10
2022-10-22T03:53:18.594Z,11.10
2022-10-22T03:55:47.722Z,11.10
2022-10-22T03:58:15.485Z,11.10
2022-10-22T04:00:43.344Z,11.10
2022-10-22T04:03:11.141Z,11.10
2022-10-22T04:05:38.858Z,11.00
2022-10-22T04:08:06.640Z,11.00
2022-10-22T04:10:34.407Z,11.00
2022-10-22T04:13:03.469Z,11.00
2022-10-22T04:15:32.463Z,10.90
2022-10-22T04:18:00.276Z,10.90
2022-10-22T04:20:27.993Z,10.90
2022-10-22T04:22:56.065Z,10.90
2022-10-22T04:25:23.809Z,10.90
2022-10-22T04:27:51.492Z,10.90
2022-10-22T04:30:20.629Z,10.90
2022-10-22T04:32:48.352Z,10.90
2022-10-22T04:35:16.321Z,10.80
2022-10-22T04:37:44.074Z,10.80
2022-10-22T04:40:13.139Z,10.80
2022-10-22T04:42:40.884Z,10.80
2022-10-22T04:45:09.793Z,10.80
2022-10-22T04:47:39.251Z,10.70
2022-10-22T04:50:09.047Z,10.80
2022-10-22T04:52:36.767Z,10.80
2022-10-22T04:55:04.760Z,10.80
2022-10-22T04:57:32.895Z,10.80
2022-10-22T05:00:00.706Z,10.70
2022-10-22T05:02:28.458Z,10.80
2022-10-22T05:04:57.529Z,10.90
2022-10-22T05:07:25.350Z,10.90
2022-10-22T05:09:54.025Z,10.90
2022-10-22T05:12:21.772Z,11.00
2022-10-22T05:14:49.513Z,11.00
2022-10-22T05:17:17.232Z,11.10
2022-10-22T05:19:44.986Z,11.10
2022-10-22T05:22:14.041Z,11.10
2022-10-22T05:24:41.807Z,11.10
2022-10-22T05:27:09.566Z,11.00
2022-10-22T05:29:37.544Z,11.00
2022-10-22T05:32:05.649Z,11.10
2022-10-22T05:34:36.014Z,11.10
2022-10-22T05:37:03.800Z,11.00
2022-10-22T05:39:36.526Z,11.00
2022-10-22T05:42:04.448Z,10.90
2022-10-22T05:44:32.143Z,10.90
2022-10-22T05:46:59.856Z,10.90
2022-10-22T05:49:27.557Z,10.90
2022-10-22T05:51:55.241Z,10.90
2022-10-22T05:54:23.074Z,10.90
2022-10-22T05:56:52.096Z,10.90
2022-10-22T05:59:19.813Z,11.00
2022-10-22T06:01:47.691Z,10.90
2022-10-22T06:04:16.872Z,11.00
2022-10-22T06:06:46.564Z,11.00
2022-10-22T06:09:18.290Z,11.00
2022-10-22T06:11:46.135Z,11.10
2022-10-22T06:14:15.573Z,11.10
2022-10-22T06:16:43.326Z,11.10
2022-10-22T06:19:12.216Z,11.10
2022-10-22T06:21:40.690Z,11.10
2022-10-22T06:24:10.297Z,11.10
2022-10-22T06:26:38.065Z,11.10
2022-10-22T06:29:05.844Z,11.10
2022-10-22T06:31:36.847Z,11.20
2022-10-22T06:34:05.052Z,11.20
2022-10-22T06:36:32.875Z,11.20
2022-10-22T06:39:00.654Z,11.20
2022-10-22T06:41:28.915Z,11.30
2022-10-22T06:43:58.189Z,11.30
2022-10-22T06:46:26.491Z,11.30
2022-10-22T06:48:57.060Z,11.40
2022-10-22T06:51:25.875Z,11.40
2022-10-22T06:53:54.681Z,11.40
2022-10-22T06:56:24.692Z,11.40
2022-10-22T06:58:54.453Z,11.40
2022-10-22T07:01:24.368Z,11.40
2022-10-22T07:03:53.208Z,11.40
2022-10-22T07:06:23.580Z,11.40
2022-10-22T07:08:51.439Z,11.50
2022-10-22T07:11:21.577Z,11.50
2022-10-22T07:13:50.075Z,11.60
2022-10-22T07:16:19.363Z,11.60
2022-10-22T07:18:48.059Z,11.60
2022-10-22T07:21:18.242Z,11.60
2022-10-22T07:23:47.351Z,11.70
2022-10-22T07:26:17.053Z,11.80
2022-10-22T07:28:45.171Z,11.80
2022-10-22T07:31:14.987Z,11.80
2022-10-22T07:33:42.695Z,11.80
2022-10-22T07:36:17.189Z,11.80
2022-10-22T07:38:45.880Z,11.80
2022-10-22T07:41:15.328Z,11.90
2022-10-22T07:43:43.344Z,11.90
2022-10-22T07:46:11.197Z,12.00
2022-10-22T07:48:39.204Z,12.10
2022-10-22T07:51:07.394Z,12.10
2022-10-22T07:53:35.174Z,12.20
2022-10-22T07:56:03.104Z,12.30
2022-10-22T07:58:32.305Z,12.30
2022-10-22T08:01:01.896Z,12.40
2022-10-22T08:03:30.221Z,12.50
2022-10-22T08:05:58.061Z,12.50
2022-10-22T08:08:29.738Z,12.60
2022-10-22T08:11:00.612Z,12.70
2022-10-22T08:13:30.339Z,12.80
2022-10-22T08:16:00.416Z,12.90
2022-10-22T08:18:29.220Z,13.00
2022-10-22T08:20:57.224Z,13.10
2022-10-22T08:23:28.334Z,13.20
2022-10-22T08:25:56.984Z,13.30
2022-10-22T08:28:24.919Z,13.40
2022-10-22T08:30:52.645Z,13.50
2022-10-22T08:33:21.837Z,13.60
2022-10-22T08:35:50.326Z,13.60
2022-10-22T08:38:18.678Z,13.70
2022-10-22T08:40:50.803Z,13.80
2022-10-22T08:43:53.475Z,13.90
2022-10-22T08:46:34.692Z,13.90
2022-10-22T08:49:06.267Z,14.00
2022-10-22T08:51:36.717Z,14.10
2022-10-22T08:54:23.565Z,14.10
2022-10-22T08:56:59.123Z,14.10
2022-10-22T08:59:33.612Z,14.10
2022-10-22T09:02:02.503Z,14.20
2022-10-22T09:04:38.883Z,14.10
2022-10-22T09:07:06.608Z,14.20
2022-10-22T09:09:41.663Z,14.20
2022-10-22T09:12:19.417Z,14.20
2022-10-22T09:14:48.344Z,14.20
2022-10-22T09:17:26.588Z,14.20
2022-10-22T09:20:04.494Z,14.20
2022-10-22T09:22:39.363Z,14.20
2022-10-22T09:25:19.455Z,14.20
2022-10-22T09:27:47.605Z,14.20
2022-10-22T09:30:17.785Z,14.20
2022-10-22T09:32:45.698Z,14.20
2022-10-22T09:35:16.019Z,14.30
2022-10-22T09:37:53.240Z,14.30
2022-10-22T09:40:21.028Z,14.30
2022-10-22T09:42:49.035Z,14.40
2022-10-22T09:45:20.988Z,14.40
2022-10-22T09:48:01.387Z,14.40
2022-10-22T09:50:40.332Z,14.40
2022-10-22T09:53:15.144Z,14.50
2022-10-22T09:55:44.379Z,14.50
2022-10-22T09:58:14.027Z,14.50
2022-10-22T10:00:45.298Z,14.60
2022-10-22T10:03:18.949Z,14.60
2022-10-22T10:05:51.136Z,14.60
2022-10-22T10:08:19.467Z,14.60
2022-10-22T10:10:50.181Z,14.60
2022-10-22T10:13:43.738Z,14.70
2022-10-22T10:16:26.168Z,14.70
2022-10-22T10:19:08.257Z,14.70
2022-10-22T10:21:45.411Z,14.70
2022-10-22T10:24:23.579Z,14.70
2022-10-22T10:26:59.514Z,14.70
2022-10-22T10:29:40.263Z,14.70
2022-10-22T10:32:28.704Z,14.70
2022-10-22T10:35:04.310Z,14.80
2022-10-22T10:37:40.593Z,14.80
2022-10-22T10:40:24.572Z,14.80
2022-10-22T10:42:58.186Z,14.80
2022-10-22T10:45:31.357Z,14.80
2022-10-22T10:48:29.654Z,14.90
2022-10-22T10:51:08.525Z,14.90
2022-10-22T10:53:53.971Z,14.90
2022-10-22T10:56:36.823Z,14.90
2022-10-22T10:59:17.410Z,14.90
2022-10-22T11:01:57.079Z,14.90
2022-10-22T11:04:48.860Z,14.90
2022-10-22T11:07:30.311Z,14.90
2022-10-22T11:10:11.809Z,15.00
2022-10-22T11:12:46.211Z,15.00
2022-10-22T11:15:25.998Z,15.00
2022-10-22T11:17:57.491Z,15.00
2022-10-22T11:20:31.406Z,15.10
2022-10-22T11:23:21.077Z,15.10
2022-10-22T11:25:51.637Z,15.10
2022-10-22T11:28:24.616Z,15.20
2022-10-22T11:30:57.871Z,15.20
2022-10-22T11:33:30.172Z,15.30
2022-10-22T11:36:00.404Z,15.30
2022-10-22T11:38:30.687Z,15.30
2022-10-22T11:41:06.080Z,15.30
2022-10-22T11:43:36.304Z,15.40
2022-10-22T11:46:25.869Z,15.40
2022-10-22T11:49:06.622Z,15.40
2022-10-22T11:51:37.059Z,15.40
2022-10-22T11:54:30.029Z,15.40
2022-10-22T11:57:19.200Z,15.50
2022-10-22T11:59:51.485Z,15.40
2022-10-22T12:02:41.837Z,15.40
2022-10-22T12:05:35.791Z,15.30
2022-10-22T12:08:18.360Z,15.30
2022-10-22T12:11:15.871Z,15.20
2022-10-22T12:14:14.793Z,15.20
2022-10-22T12:17:01.221Z,15.20
2022-10-22T12:19:31.729Z,15.20
2022-10-22T12:22:02.960Z,15.20
2022-10-22T12:24:35.140Z,15.20
2022-10-22T12:27:02.873Z,15.20
2022-10-22T12:29:33.853Z,15.20
2022-10-22T12:32:04.972Z,15.20
2022-10-22T12:34:32.723Z,15.20
2022-10-22T12:37:00.434Z,15.30
2022-10-22T12:39:29.883Z,15.40
2022-10-22T12:41:57.604Z,15.40
2022-10-22T12:44:25.340Z,15.50
2022-10-22T12:46:57.019Z,15.50
2022-10-22T12:49:29.655Z,15.60
2022-10-22T12:52:01.526Z,15.60
2022-10-22T12:54:33.051Z,15.70
2022-10-22T12:57:01.168Z,15.70
2022-10-22T12:59:33.641Z,15.80
2022-10-22T13:02:06.736Z,15.80
2022-10-22T13:04:38.585Z,15.80
2022-10-22T13:07:19.807Z,15.80
2022-10-22T13:09:59.366Z,15.80
2022-10-22T13:12:28.749Z,15.90
2022-10-22T13:14:56.580Z,15.90
2022-10-22T13:17:41.737Z,16.00
2022-10-22T13:20:18.759Z,16.10
2022-10-22T13:22:55.905Z,16.10
2022-10-22T13:25:26.973Z,16.20
2022-10-22T13:27:56.945Z,16.20
2022-10-22T13:30:27.560Z,16.20
2022-10-22T13:32:59.034Z,16.20
2022-10-22T13:35:29.356Z,16.20
2022-10-22T13:37:57.149Z,16.20
2022-10-22T13:40:24.885Z,16.20
2022-10-22T13:42:52.666Z,16.20
2022-10-22T13:45:20.648Z,16.20
2022-10-22T13:47:52.864Z,16.20
2022-10-22T13:50:22.679Z,16.20
2022-10-22T13:52:53.378Z,16.20
2022-10-22T13:55:25.317Z,16.30
2022-10-22T13:57:54.133Z,16.30
2022-10-22T14:00:23.227Z,16.30
2022-10-22T14:02:55.625Z,16.30
2022-10-22T14:05:25.017Z,16.40
2022-10-22T14:07:53.611Z,16.40
2022-10-22T14:10:23.758Z,16.40
2022-10-22T14:12:53.709Z,16.50
2022-10-22T14:15:24.651Z,16.50
2022-10-22T14:17:55.610Z,16.60
2022-10-22T14:20:28.623Z,16.60
2022-10-22T14:22:56.599Z,16.60
2022-10-22T14:25:27.769Z,16.60
2022-10-22T14:27:56.461Z,16.50
2022-10-22T14:30:26.791Z,16.50
2022-10-22T14:32:54.616Z,16.50
2022-10-22T14:35:24.816Z,16.40
2022-10-22T14:37:52.608Z,16.50
2022-10-22T14:40:21.699Z,16.50
2022-10-22T14:42:50.113Z,16.50
2022-10-22T14:45:20.858Z,16.50
2022-10-22T14:47:49.691Z,16.50
2022-10-22T14:50:18.088Z,16.40
2022-10-22T14:52:47.170Z,16.40
2022-10-22T14:55:16.804Z,16.40
2022-10-22T14:57:45.024Z,16.40
2022-10-22T15:00:16.001Z,16.30
2022-10-22T15:02:44.460Z,16.30
2022-10-22T15:05:13.044Z,16.40
2022-10-22T15:07:41.522Z,16.20
2022-10-22T15:10:11.715Z,16.20
2022-10-22T15:12:39.493Z,16.20
2022-10-22T15:15:08.436Z,16.20
2022-10-22T15:17:36.233Z,16.20
2022-10-22T15:20:05.401Z,16.20
2022-10-22T15:22:35.092Z,16.20
2022-10-22T15:25:04.532Z,16.20
2022-10-22T15:27:33.596Z,16.20
2022-10-22T15:32:34.162Z,16.10
2022-10-22T15:35:02.256Z,16.10
2022-10-22T15:37:30.745Z,16.10
2022-10-22T15:39:58.695Z,16.10
2022-10-22T15:42:26.443Z,16.10
2022-10-22T15:44:59.644Z,16.00
2022-10-22T15:47:29.310Z,16.00
2022-10-22T15:49:57.164Z,15.90
2022-10-22T15:52:24.953Z,15.90
2022-10-22T15:54:52.690Z,15.90
2022-10-22T15:57:20.439Z,15.80
2022-10-22T15:59:49.932Z,15.80
2022-10-22T16:02:19.024Z,15.80
2022-10-22T16:04:46.741Z,15.80
2022-10-22T16:07:14.656Z,15.70
2022-10-22T16:09:42.369Z,15.70
2022-10-22T16:12:11.435Z,15.60
2022-10-22T16:14:41.044Z,15.60
2022-10-22T16:17:08.765Z,15.60
2022-10-22T16:19:37.845Z,15.50
2022-10-22T16:22:05.579Z,15.40
2022-10-22T16:24:33.298Z,15.40
2022-10-22T16:27:01.033Z,15.40
2022-10-22T16:29:28.739Z,15.30
2022-10-22T16:31:56.491Z,15.30
2022-10-22T16:34:24.204Z,15.30
2022-10-22T16:36:53.586Z,15.20
2022-10-22T16:39:21.327Z,15.20
2022-10-22T16:41:49.037Z,15.10
2022-10-22T16:44:16.788Z,15.10
2022-10-22T16:46:44.504Z,15.00
2022-10-22T16:49:12.483Z,15.00
2022-10-22T16:51:40.602Z,14.90
2022-10-22T16:54:12.732Z,14.80
2022-10-22T16:56:40.573Z,14.80
2022-10-22T16:59:08.631Z,14.70
2022-10-22T17:01:40.632Z,14.70
2022-10-22T17:04:09.381Z,14.60
2022-10-22T17:06:37.463Z,14.60
2022-10-22T17:09:05.615Z,14.40
2022-10-22T17:11:37.029Z,14.50
2022-10-22T17:14:07.088Z,14.40
2022-10-22T17:16:34.817Z,14.40
2022-10-22T17:19:05.160Z,14.40
2022-10-22T17:21:33.784Z,14.40
2022-10-22T17:24:01.470Z,14.30
2022-10-22T17:26:30.313Z,14.30
2022-10-22T17:28:59.852Z,14.30
2022-10-22T17:31:29.728Z,14.30
2022-10-22T17:33:59.719Z,14.30
2022-10-22T17:36:31.791Z,14.30
2022-10-22T17:39:05.127Z,14.20
2022-10-22T17:41:34.984Z,14.20
2022-10-22T17:44:06.491Z,14.20
2022-10-22T17:46:34.249Z,14.10
2022-10-22T17:49:04.519Z,14.10
2022-10-22T17:51:32.763Z,14.10
2022-10-22T17:54:01.700Z,14.00
2022-10-22T17:56:31.343Z,14.00
2022-10-22T17:58:59.656Z,13.90
2022-10-22T18:01:30.463Z,13.90
2022-10-22T18:04:02.502Z,13.90
2022-10-22T18:06:30.924Z,13.80
2022-10-22T18:08:58.811Z,13.70
2022-10-22T18:11:28.537Z,13.70
2022-10-22T18:13:57.643Z,13.70
2022-10-22T18:16:26.056Z,13.60
2022-10-22T18:18:57.093Z,13.60
2022-10-22T18:21:27.219Z,13.60
2022-10-22T18:23:55.876Z,13.50
2022-10-22T18:26:26.672Z,13.50
2022-10-22T18:28:55.080Z,13.50
2022-10-22T18:31:24.883Z,13.40
2022-10-22T18:36:26.106Z,13.40
2022-10-22T18:38:55.337Z,13.40
2022-10-22T18:41:23.535Z,13.30
2022-10-22T18:43:51.883Z,13.20
2022-10-22T18:46:19.711Z,13.20
2022-10-22T18:48:48.830Z,13.20
2022-10-22T18:51:17.069Z,13.20
2022-10-22T18:53:58.944Z,13.10
2022-10-22T18:56:33.411Z,13.10
2022-10-22T18:59:01.124Z,13.10
2022-10-22T19:01:30.351Z,13.00
2022-10-22T19:03:58.336Z,13.00
2022-10-22T19:06:30.501Z,12.90
2022-10-22T19:09:01.460Z,12.90
2022-10-22T19:11:29.267Z,12.90
2022-10-22T19:13:57.082Z,12.90
2022-10-22T19:16:25.822Z,12.80
2022-10-22T19:18:54.575Z,12.80
2022-10-22T19:21:22.772Z,12.80
2022-10-22T19:23:51.520Z,12.80
2022-10-22T19:26:21.393Z,12.70
2022-10-22T19:28:49.129Z,12.70
2022-10-22T19:31:19.864Z,12.60
2022-10-22T19:33:47.820Z,12.60
2022-10-22T19:36:18.299Z,12.60
2022-10-22T19:38:48.557Z,12.50
2022-10-22T19:41:18.942Z,12.50
2022-10-22T19:43:50.749Z,12.50
2022-10-22T19:46:19.688Z,12.50
2022-10-22T19:48:48.588Z,12.40
2022-10-22T19:51:18.675Z,12.40
2022-10-22T19:53:46.801Z,12.40
2022-10-22T19:56:18.213Z,12.40
2022-10-22T19:58:46.418Z,12.30
2022-10-22T20:01:17.507Z,12.30
2022-10-22T20:03:46.143Z,12.30
2022-10-22T20:06:16.499Z,12.20
2022-10-22T20:08:44.739Z,12.20
2022-10-22T20:11:18.185Z,12.20
2022-10-22T20:13:49.648Z,12.10
2022-10-22T20:16:23.733Z,12.10
2022-10-22T20:18:51.861Z,12.10
2022-10-22T20:21:20.080Z,12.10
2022-10-22T20:23:48.584Z,12.10
2022-10-22T20:26:16.292Z,12.00
2022-10-22T20:28:44.014Z,12.00
2022-10-22T20:31:12.524Z,12.00
2022-10-22T20:33:41.674Z,11.90
2022-10-22T20:36:14.423Z,11.90
2022-10-22T20:38:42.199Z,11.90
2022-10-22T20:41:12.710Z,11.90
2022-10-22T20:43:40.581Z,11.90
2022-10-22T20:46:08.285Z,11.90
2022-10-22T20:48:36.062Z,11.80
2022-10-22T20:51:05.190Z,11.80
2022-10-22T20:53:33.003Z,11.80
2022-10-22T20:56:00.769Z,11.80
2022-10-22T20:58:30.509Z,11.80
2022-10-22T21:01:01.822Z,11.80
2022-10-22T21:03:29.643Z,11.80
2022-10-22T21:05:57.442Z,11.80
2022-10-22T21:08:26.493Z,11.80
2022-10-22T21:10:54.709Z,11.80
2022-10-22T21:13:22.433Z,11.80
2022-10-22T21:15:50.193Z,11.80
2022-10-22T21:18:17.919Z,11.80
2022-10-22T21:20:45.659Z,11.80
2022-10-22T21:23:13.577Z,11.90
2022-10-22T21:25:43.974Z,11.80
2022-10-22T21:28:12.201Z,11.80
2022-10-22T21:30:45.657Z,11.80
2022-10-22T21:33:13.517Z,11.80
2022-10-22T21:35:41.241Z,11.80
2022-10-22T21:38:08.942Z,11.80
2022-10-22T21:40:37.340Z,11.80
2022-10-22T21:43:06.399Z,11.70
2022-10-22T21:48:02.766Z,11.70
2022-10-22T21:50:31.122Z,11.70
2022-10-22T21:52:58.903Z,11.70
2022-10-22T21:55:26.750Z,11.70
2022-10-22T21:57:54.497Z,11.60
2022-10-22T22:00:23.737Z,11.70
2022-10-22T22:02:51.443Z,11.70
2022-10-22T22:05:21.348Z,11.70
2022-10-22T22:07:49.095Z,11.70
2022-10-22T22:10:16.904Z,11.70
2022-10-22T22:12:44.857Z,11.70
2022-10-22T22:15:12.999Z,11.70
2022-10-22T22:17:42.059Z,11.70
2022-10-22T22:20:10.933Z,11.70
2022-10-22T22:22:38.869Z,11.70
2022-10-22T22:25:07.141Z,11.70
2022-10-22T22:27:35.291Z,11.70
2022-10-22T22:30:03.161Z,11.70
2022-10-22T22:32:31.156Z,11.60
2022-10-22T22:35:00.202Z,11.60
2022-10-22T22:37:28.269Z,11.60
2022-10-22T22:39:56.052Z,11.60
2022-10-22T22:42:23.820Z,11.60
2022-10-22T22:44:51.495Z,11.60
2022-10-22T22:47:19.176Z,11.60
2022-10-22T22:49:46.914Z,11.60
2022-10-22T22:52:16.047Z,11.60
2022-10-22T22:54:43.788Z,11.60
2022-10-22T22:57:11.530Z,11.60
2022-10-22T22:59:39.282Z,11.60
2022-10-22T23:02:07.030Z,11.50
2022-10-22T23:04:34.766Z,11.50
2022-10-22T23:07:02.500Z,11.50
2022-10-22T23:09:31.560Z,11.40
2022-10-22T23:11:59.340Z,11.40
2022-10-22T23:14:27.093Z,11.40
2022-10-22T23:16:55.033Z,11.40
2022-10-22T23:19:23.839Z,11.40
2022-10-22T23:21:53.557Z,11.40
2022-10-22T23:24:23.646Z,11.40
2022-10-22T23:26:54.517Z,11.30
2022-10-22T23:29:24.476Z,11.30
2022-10-22T23:31:53.189Z,11.30
2022-10-22T23:34:22.847Z,11.30
2022-10-22T23:36:51.155Z,11.30
2022-10-22T23:39:21.238Z,11.30
2022-10-22T23:41:49.020Z,11.20
2022-10-22T23:44:18.562Z,11.20
2022-10-22T23:46:46.343Z,11.20
2022-10-22T23:49:14.853Z,11.20
2022-10-22T23:51:42.824Z,11.20
2022-10-22T23:54:14.115Z,11.10
2022-10-22T23:56:42.036Z,11.10
2022-10-22T23:59:10.284Z,11.10
